Accueil
METAR-TAF:

METAR-TAF

Aéroports :

Hua Hin, Thaïlande

latitude: 12-35N, longitude: 099-57E, altitude: 5 m

Observation

Le bulletin a été fait il y a 58 minutes, à 01:00 UTC
Vent 1 kt de direction variable
Température 29°C
Humidité 70%
Pression 1005 hPa
Visibilité 10 km ou plus
Quelques nuages à une hauteur de 3000 ft

METAR: VTPH 220100Z VRB01KT 9999 FEW030 29/23 Q1005 NOSIG

Heure: 08:58 (01:58 UTC)

Prévision

Le bulletin a été fait il y a 2 heures et 58 minutes, à 23:00 UTC
Prévision valable du 22 à 00 UTC au 22 à 24 UTC
Vent kt de nord
Visibilité 10 km ou plus
Quelques nuages à une hauteur de 3000 ft
Evoluant progressivement
du 22 à 02 UTC au 22 à 04 UTC
Vent 10 kt de sud-est
Evoluant progressivement
du 22 à 13 UTC au 22 à 15 UTC
Vent kt de nord

TAF: VTPH 212300Z 2200/2224 00000KT 9999 FEW030 BECMG 2202/2204 14010KT BECMG 2213/2215 00000KT

Observations et prévisions météorologiques de plus de 4000 aéroports (messages METAR et TAF).

Les stations disponibles sont représentées par des disques jaunes et rouges sur la carte.

Passer la souris dessus pour voir le nom de la station.

Cliquer dessus pour voir les observations et prévisions météorologiques.

Pour changer de carte: cliquez sur les boutons verts avec une croix noire pour zoomer, sur le bouton vert avec un tiret pour effectuer un zoom arrière, ou sur les flèches vertes pour les cartes adjacentes.


METAR-TAF: